Anthony, Kansas
Current Conditions -  °F | °C
As of 6:15 AM on Tuesday 27 Jan 2015 (Local Time) from KAVK Reporting Station
Broken Clouds Broken Clouds  
Wind Chill: 34°   Ceiling: 1500
Heat Index: 39°   Visibility: 10mi
Dew Point: 28°   Wind: 7mph
Humidity: 65%   Direction: 310°NW
Pressure: 30.11"   Gusts: NA
Location:  37.15°N, 98.03°W
Report Text: KAVK 271215Z AUTO 31006KT 10SM BKN015 04/M02 A3011 RMK AO2
Loading
Personal Weather Stations






























Interactive Weather Map New forecast layout! Learn more

10-Day Weather Forecast

Advertisements
Track Severe Weather on mobile